Latest Coastal Weather Observations for Cape Borda

IDS60701

Issued at 4:11 am CDT Tuesday 23 December 2014 (issued every 10 minutes, with the page automatically refreshed every 10 minutes)

About coastal observations | Map of coastal stations | Coastal observations for SA | Marine services | Other Formats
Station Details ID: 022823 Name: CAPE BORDA Lat: -35.75 Lon: 136.60 Height: 158.0 m
Data from the previous 72 hours. | See also: Recent months at Cape Borda
Date/Time
CDT
Temp

°C
Wind Pressure Rain
since 9am
mm
Weather Cloud Vis
km
Sea
Height
m
Swell
Dir
 
Speed
knots
Gust
knots
hPa Trend Height
m
Period
s
Dir
23/04:00am 13.6 S 14 20 1011.4 - 5.6 - - - - - - -
23/03:30am 14.1 S 13 18 1011.2 - 5.6 - - - - - - -
23/03:00am 14.4 S 11 16 1011.0 - 5.4 - - - - - - -
23/02:30am 14.1 SSW 11 13 1011.2 - 5.4 - - - - - - -
23/02:00am 13.9 S 12 17 1011.1 - 5.4 - - - - - - -
23/01:30am 13.9 S 13 17 1011.0 - 5.4 - - - - - - -
23/01:00am 14.0 S 13 17 1010.8 - 5.4 - - - - - - -
23/12:30am 14.2 S 14 17 1010.8 - 5.4 - - - - - - -
23/12:00am 14.6 S 13 17 1010.6 - 5.4 - - - - - - -
 
Date/Time
CDT
Temp

°C
Wind Pressure Rain
since 9am
mm
Weather Cloud Vis
km
Sea
Height
m
Swell
Dir
 
Speed
knots
Gust
knots
hPa Trend Height
m
Period
s
Dir
22/11:30pm 14.9 S 12 16 1011.0 - 5.4 - - - - - - -
22/11:00pm 15.1 S 10 14 1010.9 - 5.4 - - - - - - -
22/10:30pm 14.8 S 11 16 1010.8 - 5.4 - - - - - - -
22/10:00pm 14.6 S 12 16 1010.4 - 5.4 - - - - - - -
22/09:30pm 14.9 S 12 17 1010.0 - 5.4 - - - - - - -
22/09:00pm 15.0 S 15 20 1009.3 - 5.4 - - - - - - -
22/08:30pm 15.3 S 15 20 1009.6 - 5.4 - - - - - - -
22/08:00pm 15.9 S 13 17 1009.6 - 5.4 - - - - - - -
22/07:30pm 16.3 S 11 15 1009.4 - 5.4 - - - - - - -
22/07:00pm 16.6 SSE 9 11 1009.1 - 5.4 - - - - - - -
22/06:30pm 16.7 SSE 8 10 1008.8 - 5.4 - - - - - - -
22/06:00pm 16.9 SSE 7 11 1008.3 - 5.4 - - - - - - -
22/05:30pm 16.9 SSE 8 11 1008.3 - 5.4 - - - - - - -
22/05:00pm 16.7 SSE 7 9 1008.5 - 5.4 - - - - - - -
22/04:30pm 17.1 SW 6 9 1008.7 - 5.2 - - - - - - -
22/04:00pm 17.3 W 9 12 1008.8 - 5.2 - - - - - - -
22/03:30pm 18.7 WNW 6 8 1008.5 - 5.2 - - - - - - -
22/03:00pm 18.4 ESE 7 10 1007.5 F 5.2 Distant precip. Mostly cloudy 15 <0.1 3.2 6 SW
22/02:30pm 17.5 E 9 13 1007.8 - 5.2 - - - - - - -
22/02:00pm 17.7 ENE 13 18 1008.2 - 5.2 - - - - - - -
22/01:30pm 17.9 SE 11 14 1008.7 - 5.2 - - - - - - -
22/01:00pm 17.2 ESE 9 12 1009.6 - 5.0 - - - - - - -
22/12:30pm 16.6 ESE 11 16 1009.7 - 5.0 - - - - - - -
22/12:00pm 16.1 SE 11 13 1009.5 - 4.2 - - - - - - -
22/11:30am 16.0 SE 13 16 1009.8 - 3.2 - - - - - - -
22/11:00am 16.1 SSE 14 19 1009.9 - 3.0 - - - - - - -
22/10:30am 16.7 SSE 7 10 1010.8 - 1.0 - - - - - - -
22/10:00am 17.0 SE 14 19 1010.0 - 0.0 - - - - - - -
22/09:30am 17.2 SSE 17 23 1009.1 - 0.0 - - - - - - -
22/09:00am 17.4 SSE 15 21 1008.6 R 0.4 Distant precip. Mostly cloudy 15 <0.5 3.8 7 SW
22/08:30am 17.6 SE 13 19 1008.7 - 0.4 - - - - - - -
22/08:00am 17.4 SE 14 18 1008.6 - 0.4 - - - - - - -
22/07:30am 17.5 SE 15 21 1008.0 - 0.4 - - - - - - -
22/07:00am 17.3 SE 17 23 1007.1 - 0.4 - - - - - - -
22/06:30am 16.5 SE 18 25 1007.1 - 0.4 - - - - - - -
22/06:15am 16.4 SE 17 27 1007.2 - 0.4 - - - - - - -
22/06:00am 16.1 SE 17 23 1006.9 F 0.4 Fine Mostly cloudy 15 <0.5 2.9 6 SW
22/05:30am 16.0 SE 16 22 1007.5 - 0.4 - - - - - - -
22/05:00am 15.4 SSE 15 19 1007.8 - 0.4 - - - - - - -
22/04:30am 15.5 ESE 10 19 1008.0 - 0.4 - - - - - - -
22/04:00am 15.7 SE 15 21 1008.4 - 0.0 - - - - - - -
22/03:30am 16.8 E 11 14 1009.1 - 0.0 - - - - - - -
22/03:00am 16.7 SE 15 22 1008.7 - 0.0 - - - - - - -
22/02:30am 17.1 SE 16 23 1008.9 - 0.0 - - - - - - -
22/02:01am 17.1 SE 17 27 1008.4 - 0.0 - - - - - - -
22/02:00am 17.0 SE 17 25 1008.6 - 0.0 - - - - - - -
22/01:30am 16.5 SE 20 29 1008.6 - 0.0 - - - - - - -
22/01:04am 15.9 SE 19 29 1008.9 - 0.0 - - - - - - -
22/01:00am 15.9 SE 20 27 1008.9 - 0.0 - - - - - - -
22/12:30am 15.7 SE 20 28 1009.9 - 0.0 - - - - - - -
22/12:00am 15.8 SE 19 28 1010.2 - 0.0 - - - - - - -
 
Date/Time
CDT
Temp

°C
Wind Pressure Rain
since 9am
mm
Weather Cloud Vis
km
Sea
Height
m
Swell
Dir
 
Speed
knots
Gust
knots
hPa Trend Height
m
Period
s
Dir
21/11:30pm 15.6 SE 20 29 1010.6 - 0.0 - - - - - - -
21/11:00pm 15.8 SE 21 27 1011.3 - 0.0 - - - - - - -
21/10:30pm 15.9 SE 18 25 1012.3 - 0.0 - - - - - - -
21/10:00pm 15.8 SE 19 26 1012.6 - 0.0 - - - - - - -
21/09:30pm 15.8 SSE 21 29 1012.6 - 0.0 - - - - - - -
21/09:00pm 16.0 SSE 21 29 1011.9 - 0.0 - - - - - - -
21/08:30pm 16.4 SSE 20 30 1011.5 - 0.0 - - - - - - -
21/08:04pm 16.6 SSE 21 32 1010.5 - 0.0 - - - - - - -
21/08:00pm 16.7 SSE 20 27 1010.7 - 0.0 - - - - - - -
21/07:38pm 16.9 SSE 19 29 1010.5 - 0.0 - - - - - - -
21/07:30pm 17.1 SE 19 26 1010.4 - 0.0 - - - - - - -
21/07:19pm 17.3 SE 19 30 1010.1 - 0.0 - - - - - - -
21/07:00pm 18.0 SE 19 27 1009.8 - 0.0 - - - - - - -
21/06:32pm 19.5 SE 20 30 1009.6 - 0.0 - - - - - - -
21/06:30pm 19.5 SE 21 28 1009.6 - 0.0 - - - - - - -
21/06:00pm 20.2 SE 19 27 1008.9 - 0.0 - - - - - - -
21/05:47pm 20.0 SE 17 27 1009.4 - 0.0 - - - - - - -
21/05:30pm 20.3 SE 18 25 1009.5 - 0.0 - - - - - - -
21/05:00pm 21.3 SE 18 25 1009.5 - 0.0 - - - - - - -
21/04:30pm 21.3 SE 17 25 1010.2 - 0.0 - - - - - - -
21/04:00pm 20.9 SE 18 26 1010.3 - 0.0 - - - - - - -
21/03:30pm 21.1 SE 18 24 1010.7 - 0.0 - - - - - - -
21/03:00pm 22.7 SE 17 23 1010.7 F 0.0 Fine Mostly cloudy 18 1 3.6 6 SW
21/02:30pm 22.8 SE 17 23 1011.4 - 0.0 - - - - - - -
21/02:00pm 22.9 SE 18 26 1011.4 - 0.0 - - - - - - -
21/01:30pm 22.7 SE 19 29 1011.9 - 0.0 - - - - - - -
21/01:29pm 23.0 SE 18 29 1011.9 - 0.0 - - - - - - -
21/01:00pm 24.0 SSE 16 21 1012.3 - 0.0 - - - - - - -
21/12:30pm 23.7 SE 16 23 1012.2 - 0.0 - - - - - - -
21/12:00pm 23.1 SSE 17 22 1012.1 - 0.0 - - - - - - -
21/11:30am 24.1 SSE 15 20 1012.6 - 0.0 - - - - - - -
21/11:00am 24.3 SSE 14 18 1012.5 - 0.0 - - - - - - -
21/10:30am 24.2 SSE 13 17 1012.5 - 0.0 - - - - - - -
21/10:00am 23.0 SSE 13 16 1012.6 - 0.0 - - - - - - -
21/09:30am 22.3 SSE 11 15 1012.7 - 0.0 - - - - - - -
21/09:00am 22.8 S 7 10 1012.2 R 0.0 Fine Mostly clear 19 <0.1 2.0 8 SW
21/08:30am 22.3 SSE 6 7 1012.2 - 0.0 - - - - - - -
21/08:00am 21.4 SSE 5 6 1011.7 - 0.0 - - - - - - -
21/07:30am 19.0 S 6 7 1011.5 - 0.0 - - - - - - -
21/07:00am 20.0 E 7 10 1010.9 - 0.0 - - - - - - -
21/06:30am 19.1 ENE 11 13 1010.6 - 0.0 - - - - - - -
21/06:00am 18.5 ENE 12 16 1010.2 F 0.0 Haze Mostly clear 15 <0.1 - - SW
21/05:30am 18.4 ENE 11 15 1010.4 - 0.0 - - - - - - -
21/05:00am 18.0 E 11 15 1010.5 - 0.0 - - - - - - -
21/04:30am 17.7 ENE 11 14 1010.8 - 0.0 - - - - - - -
21/04:00am 17.7 ENE 12 16 1010.7 - 0.0 - - - - - - -
21/03:30am 16.8 ENE 11 13 1010.8 - 0.0 - - - - - - -
21/03:00am 16.0 E 11 12 1011.1 - 0.0 - - - - - - -
21/02:30am 15.3 E 11 14 1011.7 - 0.0 - - - - - - -
21/02:00am 15.2 ESE 11 13 1012.0 - 0.0 - - - - - - -
21/01:30am 14.4 ESE 11 14 1012.2 - 0.0 - - - - - - -
21/01:00am 14.2 ESE 12 14 1012.7 - 0.0 - - - - - - -
21/12:30am 14.3 ESE 12 14 1013.1 - 0.0 - - - - - - -
21/12:00am 14.3 ESE 11 13 1013.2 - 0.0 - - - - - - -
 
Date/Time
CDT
Temp

°C
Wind Pressure Rain
since 9am
mm
Weather Cloud Vis
km
Sea
Height
m
Swell
Dir
 
Speed
knots
Gust
knots
hPa Trend Height
m
Period
s
Dir
20/11:30pm 14.3 ESE 11 13 1013.1 - 0.0 - - - - - - -
20/11:00pm 14.4 ESE 11 14 1013.5 - 0.0 - - - - - - -
20/10:30pm 14.7 ESE 12 15 1013.7 - 0.0 - - - - - - -
20/10:00pm 15.2 ESE 11 14 1014.0 - 0.0 - - - - - - -
20/09:30pm 16.2 ESE 11 15 1014.4 - 0.0 - - - - - - -
20/09:00pm 17.1 ESE 9 13 1014.3 - 0.0 - - - - - - -
20/08:30pm 18.3 SE 7 10 1014.7 - 0.0 - - - - - - -
20/08:00pm 19.8 ESE 10 14 1014.4 - 0.0 - - - - - - -
20/07:30pm 21.3 SE 5 7 1014.6 - 0.0 - - - - - - -
20/07:00pm 20.2 NNE 4 7 1014.7 - 0.0 - - - - - - -
20/06:30pm 20.8 NE 8 11 1014.6 - 0.0 - - - - - - -
20/06:00pm 21.2 NE 8 11 1014.2 - 0.0 - - - - - - -
20/05:30pm 20.5 NE 8 11 1014.7 - 0.0 - - - - - - -
20/05:00pm 20.8 N 8 11 1015.3 - 0.0 - - - - - - -
20/04:30pm 19.6 N 8 11 1015.6 - 0.0 - - - - - - -
20/04:00pm 19.9 NW 7 9 1015.8 - 0.0 - - - - - - -
20/03:30pm 19.3 WNW 8 11 1016.1 - 0.0 - - - - - - -
20/03:00pm 19.1 W 8 11 1016.5 F 0.0 Fine Mostly clear 20 <0.1 3.0 8 SW
20/02:30pm 18.7 WNW 9 12 1017.2 - 0.0 - - - - - - -
20/02:00pm 19.1 W 7 11 1017.5 - 0.0 - - - - - - -
20/01:30pm 18.6 W 8 12 1018.0 - 0.0 - - - - - - -
20/01:00pm 18.7 W 8 12 1018.2 - 0.0 - - - - - - -
20/12:30pm 18.8 W 9 13 1018.5 - 0.0 - - - - - - -
20/12:00pm 18.3 W 8 11 1018.7 - 0.0 - - - - - - -
20/11:30am 17.6 W 8 11 1019.2 - 0.0 - - - - - - -
20/11:00am 17.8 N 7 9 1019.3 - 0.0 - - - - - - -
20/10:30am 17.3 N 6 9 1019.4 - 0.0 - - - - - - -
20/10:00am 16.8 N 6 8 1019.7 - 0.0 - - - - - - -
20/09:30am 16.9 N 7 10 1020.0 - 0.0 - - - - - - -
20/09:00am 16.4 N 7 9 1020.0 F 0.0 Fine Clear 18 <0.1 3.0 8 SW
20/08:30am 16.3 ESE 4 6 1019.9 - 0.0 - - - - - - -
20/08:00am 15.4 ESE 5 7 1019.6 - 0.0 - - - - - - -
20/07:30am 13.6 ESE 5 6 1019.3 - 0.0 - - - - - - -
20/07:00am 11.7 ESE 7 7 1019.2 - 0.0 - - - - - - -
20/06:30am 10.7 ESE 7 8 1019.1 - 0.0 - - - - - - -
20/06:00am 10.6 ESE 7 7 1018.9 R 0.0 Haze Clear 15 <0.5 - - SW
20/05:30am 10.3 ESE 7 8 1019.0 - 0.0 - - - - - - -
20/05:00am 10.1 SE 7 8 1018.8 - 0.0 - - - - - - -
20/04:30am 10.0 SE 8 9 1018.4 - 0.0 - - - - - - -

Other Formats:

Comma delimited format used in spreadsheet applications
http://www.bom.gov.au/fwo/IDS60701/IDS60701.95805.axf

JavaScript Object Notation format (JSON) in row-major order
http://www.bom.gov.au/fwo/IDS60701/IDS60701.95805.json